TimeEST,TemperatureF,Dew PointF,Humidity,Sea Level PressureIn,VisibilityMPH,Wind Direction,Wind SpeedMPH,Gust SpeedMPH,PrecipitationIn,Events,Conditions,WindDirDegrees,DateUTC
12:53 AM,32.0,24.1,73,30.30,10.0,SSE,3.5,-,N/A,,Clear,160,2013-11-09 05:53:00
1:53 AM,30.9,24.1,76,30.29,10.0,SE,3.5,-,N/A,,Clear,140,2013-11-09 06:53:00
2:53 AM,32.0,24.1,73,30.29,10.0,South,4.6,-,N/A,,Clear,170,2013-11-09 07:53:00
3:53 AM,30.9,24.1,76,30.28,10.0,SSW,3.5,-,N/A,,Clear,200,2013-11-09 08:53:00
4:53 AM,33.1,25.0,72,30.26,10.0,SSE,5.8,-,N/A,,Clear,160,2013-11-09 09:53:00
5:53 AM,32.0,25.0,75,30.25,10.0,SE,5.8,-,N/A,,Clear,140,2013-11-09 10:53:00
6:53 AM,33.1,25.0,72,30.26,10.0,South,5.8,-,N/A,,Clear,190,2013-11-09 11:53:00
7:53 AM,35.1,25.0,67,30.24,10.0,South,9.2,-,N/A,,Clear,170,2013-11-09 12:53:00
8:53 AM,39.0,27.0,62,30.23,10.0,South,8.1,-,N/A,,Clear,180,2013-11-09 13:53:00
9:53 AM,43.0,26.1,51,30.19,10.0,South,18.4,24.2,N/A,,Clear,190,2013-11-09 14:53:00
10:53 AM,48.0,25.0,41,30.17,10.0,SSW,12.7,24.2,N/A,,Clear,210,2013-11-09 15:53:00
11:53 AM,50.0,27.0,41,30.12,10.0,SSW,13.8,23.0,N/A,,Partly Cloudy,200,2013-11-09 16:53:00
12:53 PM,52.0,25.0,35,30.07,10.0,South,17.3,25.3,N/A,,Overcast,190,2013-11-09 17:53:00
1:53 PM,55.0,24.1,30,30.04,10.0,SSW,15.0,20.7,N/A,,Clear,200,2013-11-09 18:53:00
2:53 PM,55.0,18.0,23,30.01,10.0,SW,19.6,27.6,N/A,,Clear,230,2013-11-09 19:53:00
3:53 PM,55.0,19.0,24,29.99,10.0,SSW,12.7,23.0,N/A,,Clear,210,2013-11-09 20:53:00
4:53 PM,55.9,19.0,24,30.00,10.0,SW,16.1,25.3,N/A,,Clear,220,2013-11-09 21:53:00
5:53 PM,54.0,19.0,25,30.01,10.0,SW,13.8,18.4,N/A,,Clear,220,2013-11-09 22:53:00
6:53 PM,53.1,18.0,25,30.01,10.0,SW,9.2,-,N/A,,Clear,220,2013-11-09 23:53:00
7:53 PM,52.0,19.0,27,30.02,10.0,SW,10.4,-,N/A,,Clear,230,2013-11-10 00:53:00
8:53 PM,52.0,19.9,28,30.03,10.0,SW,12.7,25.3,N/A,,Clear,230,2013-11-10 01:53:00
9:53 PM,52.0,21.9,31,30.02,10.0,SW,15.0,23.0,N/A,,Overcast,230,2013-11-10 02:53:00
10:53 PM,52.0,25.0,35,30.01,10.0,SW,15.0,27.6,N/A,,Overcast,220,2013-11-10 03:53:00
11:53 PM,52.0,27.0,38,30.00,10.0,WSW,16.1,25.3,N/A,,Mostly Cloudy,240,2013-11-10 04:53:00